Time;durP1;ratioP1;P1;durP2;ratioP2;P2;SDS_P1;SDS_P2;PMS_P1;PMS_P2;Temp;Humidity;BMP_temperature;BMP_pressure;BME280_temperature;BME280_humidity;BME280_pressure;Samples;Min_cycle;Max_cycle;Signal;HPM_P1;HPM_P2
2022/10/23 00:02:11;;;;;;;3.40;1.95;;;;;;;11.80;94.36;96494.44;5004263;28;20048;-80
2022/10/23 00:04:37;;;;;;;3.78;2.30;;;;;;;11.76;94.45;96497.81;5004825;28;20521;-81
2022/10/23 00:07:04;;;;;;;3.15;2.08;;;;;;;11.73;94.35;96493.00;5003326;28;20065;-79
2022/10/23 00:09:31;;;;;;;2.97;2.20;;;;;;;11.71;94.34;96495.25;5002936;28;20054;-80
2022/10/23 00:11:57;;;;;;;3.25;2.08;;;;;;;11.71;94.34;96487.06;4984143;28;20051;-79
2022/10/23 00:14:25;;;;;;;3.78;2.25;;;;;;;11.71;94.25;96489.81;4982222;28;20050;-80
2022/10/23 00:16:53;;;;;;;3.08;2.05;;;;;;;11.67;94.22;96493.50;5000182;28;20046;-78
2022/10/23 00:19:19;;;;;;;3.17;1.85;;;;;;;11.60;94.57;96485.81;5009981;28;20046;-79
2022/10/23 00:21:46;;;;;;;2.83;2.08;;;;;;;11.64;94.61;96488.66;5005481;28;20065;-79
2022/10/23 00:24:13;;;;;;;3.05;1.90;;;;;;;11.66;94.58;96487.25;5018599;28;20061;-80
2022/10/23 00:26:40;;;;;;;2.95;1.80;;;;;;;11.69;94.49;96486.59;5002880;28;20050;-80
2022/10/23 00:29:08;;;;;;;2.50;1.80;;;;;;;11.69;94.89;96485.78;4990513;28;20077;-78
2022/10/23 00:31:34;;;;;;;3.42;2.05;;;;;;;11.68;94.63;96484.97;5019434;28;20056;-79
2022/10/23 00:34:06;;;;;;;3.25;1.77;;;;;;;11.67;94.70;96483.38;5018037;28;20056;-79
2022/10/23 00:36:33;;;;;;;3.13;1.95;;;;;;;11.68;94.70;96486.91;5018792;28;20041;-78
2022/10/23 00:39:00;;;;;;;3.65;2.50;;;;;;;11.60;94.70;96493.97;5018792;28;20060;-81
2022/10/23 00:41:31;;;;;;;3.83;1.88;;;;;;;11.56;94.52;96500.41;5002977;28;20046;-80
2022/10/23 00:44:01;;;;;;;4.53;2.30;;;;;;;11.49;94.93;96504.41;5005083;28;20498;-79
2022/10/23 00:46:28;;;;;;;3.25;2.13;;;;;;;11.47;94.76;96495.72;5008431;28;20038;-79
2022/10/23 00:48:56;;;;;;;4.03;1.90;;;;;;;11.42;94.84;96498.63;5009273;28;20049;-80
2022/10/23 00:51:27;;;;;;;4.40;2.10;;;;;;;11.39;94.86;96503.91;5016278;28;20045;-79
2022/10/23 00:53:58;;;;;;;4.07;2.25;;;;;;;11.39;94.45;96504.72;5021158;28;20053;-78
2022/10/23 00:56:26;;;;;;;3.90;2.40;;;;;;;11.41;94.62;96501.66;5002593;28;20046;-79
2022/10/23 00:58:53;;;;;;;3.17;2.03;;;;;;;11.45;94.33;96495.25;4985800;28;20066;-80
2022/10/23 01:01:22;;;;;;;3.25;2.22;;;;;;;11.38;94.32;96499.56;4999142;28;20060;-80
2022/10/23 01:03:49;;;;;;;3.63;2.00;;;;;;;11.36;94.53;96501.81;4998574;28;20065;-79
2022/10/23 01:06:26;;;;;;;2.75;2.05;;;;;;;11.36;94.16;96499.09;5013755;28;20053;-79
2022/10/23 01:09:02;;;;;;;4.85;2.20;;;;;;;11.34;94.01;96498.63;5019002;28;20060;-79
2022/10/23 01:11:35;;;;;;;4.25;2.00;;;;;;;11.32;93.78;96509.03;4999388;28;20076;-79
2022/10/23 01:14:07;;;;;;;2.30;1.60;;;;;;;11.29;93.69;96504.22;5015972;28;20042;-80
2022/10/23 01:16:41;;;;;;;4.50;2.03;;;;;;;11.28;93.29;96508.09;4999816;28;20049;-79
2022/10/23 01:19:16;;;;;;;2.45;1.83;;;;;;;11.22;92.90;96497.31;4996506;28;20125;-79
2022/10/23 01:21:54;;;;;;;2.50;1.60;;;;;;;11.16;92.43;96495.84;4997175;28;20050;-79
2022/10/23 01:24:37;;;;;;;3.58;2.00;;;;;;;11.10;92.26;96496.31;5002424;28;20042;-79
2022/10/23 01:27:19;;;;;;;2.92;1.70;;;;;;;11.04;92.27;96487.50;4999066;28;20050;-79
2022/10/23 01:29:49;;;;;;;2.42;1.65;;;;;;;10.97;92.20;96482.53;4995155;28;20109;-79
2022/10/23 01:32:24;;;;;;;3.38;1.80;;;;;;;10.94;92.08;96472.25;4995570;28;20419;-80
2022/10/23 01:34:55;;;;;;;3.05;1.70;;;;;;;10.92;92.32;96469.06;4996136;28;20058;-79
2022/10/23 01:37:29;;;;;;;3.22;1.70;;;;;;;10.89;92.37;96463.41;4996052;28;20050;-79
2022/10/23 01:40:02;;;;;;;3.15;1.80;;;;;;;10.84;92.57;96464.38;5006200;28;20049;-79
2022/10/23 01:42:36;;;;;;;4.03;1.92;;;;;;;10.81;92.39;96466.94;4982884;28;20042;-79
2022/10/23 01:45:08;;;;;;;3.30;1.80;;;;;;;10.76;92.41;96467.09;5006758;28;20129;-79
2022/10/23 01:47:36;;;;;;;3.40;2.10;;;;;;;10.69;92.10;96465.59;5009695;28;20069;-80
2022/10/23 01:50:05;;;;;;;4.72;1.80;;;;;;;10.65;92.55;96480.19;5015430;28;20087;-79
2022/10/23 01:52:32;;;;;;;4.70;2.40;;;;;;;10.61;92.67;96477.28;5016715;28;20066;-80
2022/10/23 01:55:01;;;;;;;6.10;2.65;;;;;;;10.53;93.30;96480.75;5016810;28;20531;-80
2022/10/23 01:57:32;;;;;;;4.60;2.53;;;;;;;10.53;93.69;96472.59;4999213;28;20057;-80
2022/10/23 02:00:03;;;;;;;3.78;2.53;;;;;;;10.52;93.96;96471.00;4997310;28;20049;-80
2022/10/23 02:02:32;;;;;;;3.28;2.70;;;;;;;10.42;94.36;96461.19;4971400;28;20042;-79
2022/10/23 02:05:03;;;;;;;3.45;2.55;;;;;;;10.41;94.26;96461.50;5002888;28;20129;-80
2022/10/23 02:07:30;;;;;;;4.45;2.92;;;;;;;10.37;94.17;96463.25;5017430;28;20128;-80
2022/10/23 02:09:57;;;;;;;4.13;2.60;;;;;;;10.33;94.40;96462.25;5006457;28;20066;-79
2022/10/23 02:12:35;;;;;;;4.70;2.55;;;;;;;10.32;94.39;96464.19;4982459;28;20046;-80
2022/10/23 02:15:09;;;;;;;3.92;2.80;;;;;;;10.31;94.09;96459.06;4999030;28;20053;-79
2022/10/23 02:17:46;;;;;;;5.25;3.10;;;;;;;10.34;93.91;96466.63;5004272;28;20070;-80
2022/10/23 02:20:19;;;;;;;4.65;2.70;;;;;;;10.33;94.00;96467.69;4973703;28;20503;-79
2022/10/23 02:22:54;;;;;;;3.58;2.65;;;;;;;10.32;93.80;96450.56;4999215;28;20110;-79
2022/10/23 02:25:29;;;;;;;3.88;2.53;;;;;;;10.30;94.03;96452.03;5001268;28;20072;-79
2022/10/23 02:28:01;;;;;;;4.97;2.40;;;;;;;10.26;94.45;96448.31;5000662;28;20465;-80
2022/10/23 02:30:30;;;;;;;3.58;2.50;;;;;;;10.17;94.60;96432.69;5000770;28;20129;-77
2022/10/23 02:32:58;;;;;;;5.50;3.08;;;;;;;10.07;94.37;96432.16;5000780;28;20502;-79
2022/10/23 02:35:25;;;;;;;5.07;3.33;;;;;;;10.10;94.52;96431.56;5017204;28;20125;-79
2022/10/23 02:37:53;;;;;;;4.00;2.85;;;;;;;10.06;94.08;96423.22;5018992;28;20458;-80
2022/10/23 02:40:20;;;;;;;2.47;2.17;;;;;;;10.01;94.33;96433.44;5018410;28;20052;-80
2022/10/23 02:42:54;;;;;;;4.13;2.67;;;;;;;9.99;94.19;96431.03;5001619;28;20055;-79
2022/10/23 02:45:30;;;;;;;5.13;2.72;;;;;;;9.98;93.93;96432.16;5001416;28;20050;-79
2022/10/23 02:48:04;;;;;;;3.83;2.75;;;;;;;9.96;94.19;96426.19;5014685;28;20049;-80
2022/10/23 02:50:39;;;;;;;3.20;2.50;;;;;;;9.88;94.26;96424.25;5004923;28;20038;-80
2022/10/23 02:53:14;;;;;;;3.45;2.80;;;;;;;9.75;94.25;96427.84;4998801;28;20046;-80
2022/10/23 02:55:50;;;;;;;3.95;2.60;;;;;;;9.72;94.02;96415.69;4998635;28;20056;-79
2022/10/23 02:58:24;;;;;;;4.15;2.40;;;;;;;9.60;94.03;96413.50;4997750;28;20078;-79
2022/10/23 03:00:56;;;;;;;2.45;2.25;;;;;;;9.52;94.02;96414.25;4980820;28;20070;-79
2022/10/23 03:03:29;;;;;;;4.50;2.47;;;;;;;9.49;94.01;96411.34;4997067;28;20471;-79
2022/10/23 03:05:56;;;;;;;3.13;2.38;;;;;;;9.44;93.71;96414.19;4997039;28;20046;-79
2022/10/23 03:08:23;;;;;;;3.30;2.50;;;;;;;9.35;93.93;96406.78;4997423;28;20046;-79
2022/10/23 03:10:50;;;;;;;3.15;2.55;;;;;;;9.35;93.73;96411.44;5015301;28;20050;-79
2022/10/23 03:13:17;;;;;;;2.53;2.33;;;;;;;9.36;93.71;96410.31;5016488;28;20050;-80
2022/10/23 03:15:44;;;;;;;3.22;2.33;;;;;;;9.36;93.88;96402.16;5016389;28;20118;-78
2022/10/23 03:18:12;;;;;;;2.92;2.40;;;;;;;9.32;93.70;96409.31;5016430;28;20052;-79
2022/10/23 03:20:38;;;;;;;3.80;2.50;;;;;;;9.22;93.60;96412.28;5016212;28;20585;-79
2022/10/23 03:23:05;;;;;;;2.95;2.42;;;;;;;8.97;94.25;96417.16;5010774;28;20406;-79
2022/10/23 03:25:32;;;;;;;3.00;2.42;;;;;;;9.01;94.46;96423.59;4996283;28;20080;-80
2022/10/23 03:27:59;;;;;;;2.13;1.90;;;;;;;9.05;93.70;96424.59;4997464;28;20068;-81
2022/10/23 03:30:25;;;;;;;2.47;2.10;;;;;;;9.02;93.98;96419.78;4996952;28;20077;-80
2022/10/23 03:32:52;;;;;;;3.67;2.40;;;;;;;8.97;93.56;96422.59;4996987;28;20053;-80
2022/10/23 03:35:20;;;;;;;2.78;2.47;;;;;;;8.95;93.85;96410.44;4980085;28;20046;-80
2022/10/23 03:37:47;;;;;;;3.03;2.40;;;;;;;8.89;94.36;96401.63;5019060;28;20049;-81
2022/10/23 03:40:13;;;;;;;5.25;2.67;;;;;;;8.89;94.58;96398.91;5011793;28;20405;-81
2022/10/23 03:42:40;;;;;;;3.13;2.45;;;;;;;8.88;94.76;96402.72;4999776;28;20441;-80
2022/10/23 03:45:07;;;;;;;2.50;1.95;;;;;;;8.91;95.15;96401.31;4977760;28;20046;-80
2022/10/23 03:47:39;;;;;;;2.60;2.40;;;;;;;8.90;94.82;96405.94;4979623;28;20047;-80
2022/10/23 03:50:06;;;;;;;3.38;2.40;;;;;;;8.94;94.84;96409.66;4995404;28;20105;-79
2022/10/23 03:52:35;;;;;;;3.45;1.98;;;;;;;8.96;94.35;96406.63;4995710;28;20045;-79
2022/10/23 03:55:01;;;;;;;3.00;2.22;;;;;;;8.93;94.09;96408.06;4996629;28;20421;-79
2022/10/23 03:57:28;;;;;;;3.80;2.40;;;;;;;8.96;94.04;96407.41;5010865;28;20052;-79
2022/10/23 03:59:55;;;;;;;3.10;2.42;;;;;;;8.77;93.14;96404.03;4979143;28;20046;-80
2022/10/23 04:02:21;;;;;;;2.45;2.00;;;;;;;8.79;93.27;96401.84;4995072;28;20061;-79
2022/10/23 04:04:48;;;;;;;2.40;2.10;;;;;;;8.77;93.54;96404.88;4978142;28;20047;-79
2022/10/23 04:07:15;;;;;;;4.88;2.53;;;;;;;8.73;93.87;96401.16;4978053;28;20073;-79
2022/10/23 04:09:43;;;;;;;3.47;2.40;;;;;;;8.73;93.92;96411.22;5001206;28;20053;-79
2022/10/23 04:12:09;;;;;;;4.18;2.60;;;;;;;8.74;94.10;96401.94;5014399;28;20073;-79
2022/10/23 04:14:36;;;;;;;21.83;2.75;;;;;;;8.68;94.37;96405.88;5015063;28;20049;-80
2022/10/23 04:17:03;;;;;;;13.00;2.90;;;;;;;8.60;94.59;96402.75;5014219;28;20057;-78
2022/10/23 04:19:29;;;;;;;11.82;2.47;;;;;;;8.58;95.06;96405.00;4995911;28;20045;-79
2022/10/23 04:21:57;;;;;;;6.05;2.33;;;;;;;8.55;95.24;96408.28;5014473;28;20049;-79
2022/10/23 04:24:24;;;;;;;3.50;2.70;;;;;;;8.62;95.14;96403.28;4998238;28;20046;-79
2022/10/23 04:26:52;;;;;;;8.65;2.30;;;;;;;8.65;95.06;96393.72;4978941;28;20050;-80
2022/10/23 04:29:21;;;;;;;6.05;2.47;;;;;;;8.68;95.27;96389.59;4994758;28;20150;-78
2022/10/23 04:31:48;;;;;;;40.33;3.60;;;;;;;8.64;95.19;96394.81;4996152;28;20569;-80
2022/10/23 04:34:14;;;;;;;8.48;2.10;;;;;;;8.57;95.38;96399.88;4978600;28;20130;-79
2022/10/23 04:36:41;;;;;;;2.47;2.20;;;;;;;8.58;94.83;96396.84;5001767;28;20060;-80
2022/10/23 04:39:08;;;;;;;7.07;2.60;;;;;;;8.49;94.97;96406.81;4995619;28;20065;-79
2022/10/23 04:41:34;;;;;;;3.05;2.38;;;;;;;8.51;95.02;96393.75;5015543;28;20105;-79
2022/10/23 04:44:02;;;;;;;3.10;2.42;;;;;;;8.51;95.24;96399.19;4997627;28;20413;-79
2022/10/23 04:46:29;;;;;;;6.63;2.47;;;;;;;8.53;95.11;96396.94;5011022;28;20481;-79
2022/10/23 04:48:56;;;;;;;3.10;2.53;;;;;;;8.54;95.14;96393.13;4996957;28;20153;-78
2022/10/23 04:51:22;;;;;;;3.47;2.60;;;;;;;8.53;95.54;96396.94;4994976;28;20050;-79
2022/10/23 04:53:49;;;;;;;4.75;2.55;;;;;;;8.52;95.81;96395.34;5007335;28;20045;-78
2022/10/23 04:56:16;;;;;;;2.45;2.20;;;;;;;8.50;95.56;96402.97;4987459;28;20049;-79
2022/10/23 04:58:42;;;;;;;2.40;2.17;;;;;;;8.57;95.69;96397.97;4994923;28;20484;-79
2022/10/23 05:01:10;;;;;;;3.08;2.47;;;;;;;8.58;95.48;96399.56;4976931;28;20513;-79
2022/10/23 05:03:38;;;;;;;3.47;2.30;;;;;;;8.56;95.52;96404.50;4994920;28;20050;-79
2022/10/23 05:06:05;;;;;;;2.70;2.10;;;;;;;8.55;95.99;96394.72;4994455;28;20965;-79
2022/10/23 05:08:34;;;;;;;5.50;2.75;;;;;;;8.56;95.71;96396.34;4978503;28;20042;-79
2022/10/23 05:11:01;;;;;;;3.53;2.78;;;;;;;8.58;94.93;96399.56;4991828;28;20125;-79
2022/10/23 05:13:28;;;;;;;3.20;2.38;;;;;;;8.58;94.40;96399.56;5013929;28;20121;-79
2022/10/23 05:15:54;;;;;;;3.13;2.53;;;;;;;8.59;94.61;96397.66;4979027;28;20074;-79
2022/10/23 05:18:27;;;;;;;3.30;2.45;;;;;;;8.55;94.50;96394.72;4993696;28;20133;-79
2022/10/23 05:20:57;;;;;;;3.25;2.50;;;;;;;8.54;94.81;96387.69;5007821;28;20052;-80
2022/10/23 05:23:26;;;;;;;3.20;2.30;;;;;;;8.56;94.90;96382.78;5009632;28;20126;-80
2022/10/23 05:25:53;;;;;;;2.80;2.10;;;;;;;8.60;94.61;96378.34;4994553;28;20410;-80
2022/10/23 05:28:19;;;;;;;2.85;2.17;;;;;;;8.62;93.92;96375.34;4994057;28;20129;-79
2022/10/23 05:30:46;;;;;;;2.55;2.15;;;;;;;8.58;93.90;96369.69;4993967;28;20060;-80
2022/10/23 05:33:12;;;;;;;2.53;1.80;;;;;;;8.55;93.40;96373.00;4993807;28;20058;-80
2022/10/23 05:35:42;;;;;;;2.70;2.03;;;;;;;8.51;93.44;96366.59;4997283;28;20418;-78
2022/10/23 05:38:09;;;;;;;2.58;2.10;;;;;;;8.53;93.52;96369.81;5013335;28;20046;-79
2022/10/23 05:40:36;;;;;;;2.83;2.03;;;;;;;8.48;93.79;96361.78;4988876;28;20050;-80
2022/10/23 05:43:03;;;;;;;3.83;2.30;;;;;;;8.45;94.42;96362.38;4994810;28;20076;-79
2022/10/23 05:45:29;;;;;;;2.90;2.08;;;;;;;8.40;94.49;96359.78;4996393;28;20042;-80
2022/10/23 05:47:56;;;;;;;3.40;2.13;;;;;;;8.26;94.73;96358.97;4997272;28;20494;-80
2022/10/23 05:50:23;;;;;;;2.70;2.05;;;;;;;8.28;94.99;96362.16;4994465;28;20062;-80
2022/10/23 05:52:51;;;;;;;2.85;2.30;;;;;;;8.29;95.12;96370.00;4974411;28;20050;-80
2022/10/23 05:55:17;;;;;;;2.67;2.25;;;;;;;8.30;95.15;96366.19;4975131;28;20050;-80
2022/10/23 05:57:44;;;;;;;2.70;2.08;;;;;;;8.31;95.31;96375.16;4979972;28;20073;-81
2022/10/23 06:00:12;;;;;;;2.85;2.22;;;;;;;8.30;95.20;96378.94;4981334;28;20045;-78
2022/10/23 06:02:39;;;;;;;3.03;2.20;;;;;;;8.28;95.41;96378.44;5000117;28;20498;-80
2022/10/23 06:05:06;;;;;;;2.80;2.28;;;;;;;8.31;95.27;96377.84;4998684;28;20053;-80
2022/10/23 06:07:32;;;;;;;3.70;2.60;;;;;;;8.37;95.32;96376.66;4999872;28;20038;-81
2022/10/23 06:10:00;;;;;;;5.00;2.53;;;;;;;8.39;95.38;96369.03;4983038;28;20054;-80
2022/10/23 06:12:27;;;;;;;3.47;2.17;;;;;;;8.44;94.73;96379.78;4998310;28;20046;-80
2022/10/23 06:14:54;;;;;;;3.75;2.70;;;;;;;8.44;94.27;96385.19;4999804;28;20056;-80
2022/10/23 06:17:21;;;;;;;4.10;2.60;;;;;;;8.40;93.67;96386.91;5003146;28;20060;-82
2022/10/23 06:19:47;;;;;;;2.95;2.38;;;;;;;8.39;93.39;96377.16;5002868;28;20054;-80
2022/10/23 06:22:14;;;;;;;3.55;2.33;;;;;;;8.40;94.00;96370.63;4984310;28;20057;-81
2022/10/23 06:24:41;;;;;;;4.72;3.67;;;;;;;8.40;94.11;96376.06;5003616;28;20073;-81
2022/10/23 06:27:09;;;;;;;6.53;4.65;;;;;;;8.42;94.01;96382.00;4991874;28;20146;-81
2022/10/23 06:29:35;;;;;;;6.72;4.80;;;;;;;8.44;94.50;96382.47;4983071;28;20062;-82
2022/10/23 06:32:02;;;;;;;5.00;3.58;;;;;;;8.44;94.45;96378.97;4982772;28;20046;-80
2022/10/23 06:34:29;;;;;;;3.90;2.90;;;;;;;8.36;94.92;96384.00;4969400;28;20068;-81
2022/10/23 06:36:56;;;;;;;3.92;2.60;;;;;;;8.42;95.18;96373.84;4989114;28;20054;-81
2022/10/23 06:39:23;;;;;;;5.30;3.22;;;;;;;8.52;95.26;96384.50;5001258;28;20046;-81
2022/10/23 06:41:49;;;;;;;4.03;3.10;;;;;;;8.58;94.88;96383.28;5002190;28;20050;-80
2022/10/23 06:44:17;;;;;;;10.93;5.20;;;;;;;8.63;94.54;96391.31;4982560;28;20130;-81
2022/10/23 06:46:46;;;;;;;13.38;8.25;;;;;;;8.63;94.19;96391.31;4991493;28;20054;-80
2022/10/23 06:49:14;;;;;;;16.58;8.65;;;;;;;8.69;94.79;96394.72;5000917;28;20142;-81
2022/10/23 06:51:41;;;;;;;12.63;6.50;;;;;;;8.81;95.04;96402.31;5014909;28;20077;-82
2022/10/23 06:54:08;;;;;;;5.15;3.35;;;;;;;8.89;95.43;96404.34;5032227;28;20057;-80
2022/10/23 06:56:35;;;;;;;6.75;3.95;;;;;;;8.98;95.58;96399.78;5033702;28;20038;-82
2022/10/23 06:59:01;;;;;;;4.05;3.28;;;;;;;9.07;95.81;96389.78;5007397;28;20061;-80
2022/10/23 07:01:32;;;;;;;3.83;2.95;;;;;;;9.14;96.22;96398.31;5015562;28;20073;-81
2022/10/23 07:03:59;;;;;;;3.60;2.92;;;;;;;9.20;96.01;96395.50;5024637;28;20057;-80
2022/10/23 07:06:26;;;;;;;4.72;2.53;;;;;;;9.23;96.31;96395.66;5001955;28;20631;-81
2022/10/23 07:08:53;;;;;;;4.93;2.60;;;;;;;9.26;95.89;96392.34;5010900;28;20049;-81
2022/10/23 07:11:19;;;;;;;3.80;2.35;;;;;;;9.35;95.52;96395.13;5031937;28;20096;-81
2022/10/23 07:13:46;;;;;;;2.63;2.17;;;;;;;9.36;95.37;96380.41;5020406;28;20042;-80
2022/10/23 07:16:14;;;;;;;5.75;3.05;;;;;;;9.41;95.09;96372.94;5019537;28;20026;-79
2022/10/23 07:18:43;;;;;;;3.40;2.42;;;;;;;9.48;95.19;96383.38;5034547;28;20050;-81
2022/10/23 07:21:10;;;;;;;2.78;2.30;;;;;;;9.65;94.74;96378.03;5031197;28;20038;-81
2022/10/23 07:23:37;;;;;;;3.88;2.22;;;;;;;9.72;94.83;96374.09;5026831;28;20073;-82
2022/10/23 07:26:06;;;;;;;5.72;2.58;;;;;;;9.71;94.71;96375.19;5019746;28;20046;-82
2022/10/23 07:28:33;;;;;;;3.15;2.45;;;;;;;9.81;94.55;96378.44;5015367;28;20072;-83
2022/10/23 07:31:00;;;;;;;3.08;2.40;;;;;;;9.88;94.25;96375.28;4999002;28;20135;-82
2022/10/23 07:33:26;;;;;;;2.78;2.20;;;;;;;9.75;93.62;96376.16;5014694;28;20042;-81
2022/10/23 07:35:54;;;;;;;5.32;2.45;;;;;;;9.90;93.79;96389.38;5017718;28;20125;-81
2022/10/23 07:38:23;;;;;;;3.80;2.03;;;;;;;10.06;93.54;96374.25;5026334;28;20046;-83
2022/10/23 07:40:49;;;;;;;3.15;2.28;;;;;;;10.22;93.98;96376.53;5036429;28;20057;-81
2022/10/23 07:43:17;;;;;;;2.97;2.13;;;;;;;10.32;93.52;96379.81;5036720;28;20065;-80
2022/10/23 07:45:47;;;;;;;3.95;2.20;;;;;;;10.37;92.84;96376.13;5037657;28;20060;-80
2022/10/23 07:48:14;;;;;;;2.38;2.00;;;;;;;10.44;92.41;96377.31;5000631;28;20046;-81
2022/10/23 07:50:40;;;;;;;2.80;1.85;;;;;;;10.52;92.53;96370.25;5000973;28;20054;-82
2022/10/23 07:53:15;;;;;;;3.55;2.20;;;;;;;10.55;92.66;96371.56;5008058;28;20033;-80
2022/10/23 07:55:41;;;;;;;3.90;2.05;;;;;;;10.70;92.29;96362.91;5038252;28;20069;-82
2022/10/23 07:58:08;;;;;;;2.97;2.00;;;;;;;10.82;91.95;96370.47;5015900;28;20038;-82
2022/10/23 08:00:36;;;;;;;2.08;1.77;;;;;;;10.98;90.98;96363.44;5017721;28;20026;-82
2022/10/23 08:03:03;;;;;;;2.63;1.77;;;;;;;11.10;90.48;96365.53;5023396;28;20030;-81
2022/10/23 08:05:31;;;;;;;2.72;1.90;;;;;;;11.26;89.35;96361.19;5020152;28;20053;-81
2022/10/23 08:07:57;;;;;;;5.18;1.70;;;;;;;11.29;88.24;96373.38;5018649;28;20050;-82
2022/10/23 08:13:47;;;;;;;2.00;1.67;;;;;;;11.49;87.13;96359.09;5070376;23;20047;-75
2022/10/23 08:16:14;;;;;;;2.63;1.70;;;;;;;11.56;87.11;96359.38;5071302;28;20048;-76
2022/10/23 08:18:41;;;;;;;1.90;1.50;;;;;;;11.76;87.19;96361.41;5072171;28;20051;-76
2022/10/23 08:21:09;;;;;;;1.92;1.70;;;;;;;11.97;87.50;96360.75;5076033;28;20036;-76
2022/10/23 08:23:36;;;;;;;2.40;1.52;;;;;;;12.19;86.93;96367.88;5072220;28;20048;-75
2022/10/23 08:26:04;;;;;;;1.85;1.40;;;;;;;12.26;85.43;96366.22;5073299;28;20044;-76
2022/10/23 08:28:32;;;;;;;2.70;1.80;;;;;;;12.43;84.37;96362.63;5072673;28;20040;-79
2022/10/23 08:31:09;;;;;;;1.75;1.50;;;;;;;12.59;83.40;96373.00;5074855;28;20041;-79
2022/10/23 08:33:36;;;;;;;1.52;1.42;;;;;;;12.54;81.92;96379.44;5075207;28;20047;-79
2022/10/23 08:36:03;;;;;;;4.38;2.10;;;;;;;12.56;82.55;96376.38;5072071;28;20045;-76
2022/10/23 08:38:29;;;;;;;2.47;1.70;;;;;;;12.67;83.25;96366.66;5072636;28;20048;-78
2022/10/23 08:40:56;;;;;;;2.25;1.52;;;;;;;12.81;82.78;96367.22;5072032;28;20148;-79
2022/10/23 08:43:34;;;;;;;1.63;1.38;;;;;;;12.78;82.44;96370.63;5070905;28;20119;-77
2022/10/23 08:46:10;;;;;;;2.95;1.60;;;;;;;12.89;83.18;96362.81;5070841;28;20036;-77
2022/10/23 08:48:41;;;;;;;4.35;1.60;;;;;;;12.89;82.34;96362.81;5071659;28;20055;-76
2022/10/23 08:51:16;;;;;;;2.15;1.50;;;;;;;12.95;82.42;96361.53;5071803;28;20201;-76
2022/10/23 08:53:51;;;;;;;2.55;1.55;;;;;;;12.94;82.38;96357.97;5070825;28;20044;-78
2022/10/23 08:56:25;;;;;;;2.08;1.60;;;;;;;12.97;82.89;96354.56;5070618;28;20047;-77
2022/10/23 08:58:56;;;;;;;4.72;1.77;;;;;;;12.93;81.68;96348.16;5071431;28;20048;-78
2022/10/23 09:01:37;;;;;;;3.60;1.67;;;;;;;12.88;81.70;96351.09;5053334;28;20044;-77
2022/10/23 09:04:05;;;;;;;3.13;1.70;;;;;;;12.93;82.59;96352.84;5070469;28;20063;-78
2022/10/23 09:06:36;;;;;;;5.82;2.45;;;;;;;13.06;83.00;96347.09;5071264;28;20451;-78
2022/10/23 09:09:21;;;;;;;3.58;1.70;;;;;;;13.17;83.67;96352.97;5071962;28;20588;-77
2022/10/23 09:11:56;;;;;;;2.97;1.70;;;;;;;13.26;83.14;96348.25;5071552;28;20045;-78
2022/10/23 09:14:49;;;;;;;2.15;1.70;;;;;;;13.35;82.92;96347.38;5071968;28;20050;-78
2022/10/23 09:17:23;;;;;;;1.88;1.55;;;;;;;13.39;82.12;96342.84;5058701;28;20060;-78
2022/10/23 09:19:55;;;;;;;3.60;2.20;;;;;;;13.38;82.39;96333.03;5053028;28;20416;-77
2022/10/23 09:22:22;;;;;;;5.78;1.80;;;;;;;13.50;81.78;96331.13;5069408;28;20056;-77
2022/10/23 09:24:49;;;;;;;2.67;1.80;;;;;;;13.65;81.63;96329.69;5070004;28;20135;-76
2022/10/23 09:27:17;;;;;;;2.45;1.85;;;;;;;13.71;81.87;96331.06;5069191;28;20052;-78
2022/10/23 09:29:48;;;;;;;4.15;1.70;;;;;;;13.72;80.31;96321.72;5070046;28;20048;-77
2022/10/23 09:32:15;;;;;;;4.47;1.75;;;;;;;13.84;81.23;96321.75;5068742;28;20431;-78
2022/10/23 09:34:53;;;;;;;3.83;1.65;;;;;;;14.02;82.01;96305.91;5071596;28;20403;-78
2022/10/23 09:37:24;;;;;;;3.50;1.80;;;;;;;14.20;80.56;96305.69;5070098;28;20041;-78
2022/10/23 09:40:14;;;;;;;1.70;1.20;;;;;;;14.44;80.70;96310.38;5071295;28;20450;-78
2022/10/23 09:42:50;;;;;;;4.28;1.40;;;;;;;14.58;80.05;96310.84;5071257;28;20037;-78
2022/10/23 09:45:27;;;;;;;2.13;1.33;;;;;;;14.58;79.10;96313.59;5070988;28;20044;-77
2022/10/23 09:48:14;;;;;;;4.50;1.40;;;;;;;14.72;78.95;96302.25;5070659;28;20052;-78
2022/10/23 09:50:54;;;;;;;1.58;1.13;;;;;;;14.93;77.92;96305.66;5070988;28;20466;-77
2022/10/23 09:53:32;;;;;;;4.85;1.83;;;;;;;15.07;77.66;96299.75;5070426;28;20132;-77
2022/10/23 09:56:01;;;;;;;4.13;2.03;;;;;;;15.28;77.69;96303.13;5071013;28;20450;-77
2022/10/23 09:58:33;;;;;;;1.95;1.38;;;;;;;15.45;76.85;96299.25;5071010;28;20036;-79
2022/10/23 10:01:00;;;;;;;2.92;1.80;;;;;;;15.58;75.81;96308.25;5052921;28;20048;-78
2022/10/23 10:03:27;;;;;;;2.45;1.80;;;;;;;15.60;74.96;96311.41;5070402;28;20398;-79
2022/10/23 10:05:57;;;;;;;2.53;1.60;;;;;;;15.73;74.57;96315.75;5070691;28;20049;-78
2022/10/23 10:08:32;;;;;;;2.25;1.35;;;;;;;15.88;74.74;96320.47;5069982;28;20068;-77
2022/10/23 10:11:02;;;;;;;2.55;1.50;;;;;;;16.06;73.52;96306.38;5070439;28;20070;-78
2022/10/23 10:13:53;;;;;;;4.75;2.08;;;;;;;16.19;73.27;96299.66;5071108;28;20047;-78
2022/10/23 10:16:30;;;;;;;3.42;1.45;;;;;;;16.32;71.68;96292.88;5071871;28;20534;-79
2022/10/23 10:19:05;;;;;;;3.55;1.98;;;;;;;16.34;71.63;96290.59;5071178;28;20060;-79
2022/10/23 10:21:40;;;;;;;2.97;1.60;;;;;;;16.48;72.28;96283.81;5070734;28;20384;-78
2022/10/23 10:24:15;;;;;;;2.13;1.60;;;;;;;16.57;72.01;96282.47;5070408;28;20049;-78
2022/10/23 10:26:49;;;;;;;2.17;1.65;;;;;;;16.74;71.84;96284.03;5071050;28;20486;-78
2022/10/23 10:29:28;;;;;;;2.40;1.70;;;;;;;16.81;71.09;96286.16;5070740;28;20053;-77
2022/10/23 10:32:06;;;;;;;3.30;1.63;;;;;;;16.87;69.94;96274.53;5070932;28;20037;-78
2022/10/23 10:34:41;;;;;;;3.92;1.70;;;;;;;17.07;70.33;96271.75;5071019;28;20040;-78
2022/10/23 10:37:21;;;;;;;3.45;1.65;;;;;;;17.13;70.71;96275.84;5070728;28;20044;-78
2022/10/23 10:39:53;;;;;;;5.97;1.83;;;;;;;17.12;70.55;96268.72;5069991;28;20044;-77
2022/10/23 10:42:39;;;;;;;3.00;1.92;;;;;;;17.18;70.25;96275.56;5070419;28;20045;-78
2022/10/23 10:45:19;;;;;;;3.55;1.80;;;;;;;17.17;70.34;96271.19;5074830;28;20136;-77
2022/10/23 10:47:58;;;;;;;2.38;1.60;;;;;;;17.26;70.44;96269.00;5040442;28;20060;-77
2022/10/23 10:50:31;;;;;;;3.90;1.95;;;;;;;17.22;70.25;96257.94;5054764;28;20659;-77
2022/10/23 10:53:09;;;;;;;3.90;2.17;;;;;;;17.27;70.13;96259.59;5066363;28;20593;-77
2022/10/23 10:55:39;;;;;;;2.25;1.67;;;;;;;17.41;70.33;96253.56;5075941;28;20132;-78
2022/10/23 10:58:14;;;;;;;3.75;1.77;;;;;;;17.53;70.03;96250.66;5075686;28;20052;-78
2022/10/23 11:00:42;;;;;;;3.88;1.50;;;;;;;17.60;69.00;96247.25;5075577;28;20131;-78
2022/10/23 11:03:27;;;;;;;4.40;1.67;;;;;;;17.63;68.27;96252.00;5075507;28;20055;-78
2022/10/23 11:05:57;;;;;;;1.98;1.50;;;;;;;17.73;68.47;96245.94;5076639;28;20054;-78
2022/10/23 11:08:33;;;;;;;1.90;1.30;;;;;;;17.80;68.57;96237.00;5075753;28;20127;-78
2022/10/23 11:11:04;;;;;;;2.08;1.27;;;;;;;17.83;66.82;96230.75;5076582;28;20054;-77
2022/10/23 11:13:39;;;;;;;1.63;1.30;;;;;;;17.90;67.76;96226.16;5076093;28;20039;-77
2022/10/23 11:16:12;;;;;;;2.72;1.45;;;;;;;17.94;66.46;96217.94;5075727;28;20045;-77
2022/10/23 11:18:42;;;;;;;3.30;1.08;;;;;;;17.90;66.61;96209.63;5076017;28;20418;-77
2022/10/23 11:21:24;;;;;;;3.92;1.30;;;;;;;18.11;67.78;96205.63;5077220;28;20049;-77
2022/10/23 11:24:25;;;;;;;1.27;1.00;;;;;;;18.20;65.12;96193.16;5075547;28;20104;-77
2022/10/23 11:27:06;;;;;;;1.73;1.00;;;;;;;18.28;65.26;96190.53;5061262;28;20044;-78
2022/10/23 11:30:07;;;;;;;2.97;1.30;;;;;;;18.39;65.98;96197.78;5077082;28;20047;-77
2022/10/23 11:33:11;;;;;;;2.55;1.02;;;;;;;18.51;65.46;96189.28;5074910;28;20048;-77
2022/10/23 11:35:49;;;;;;;1.65;1.13;;;;;;;18.46;63.87;96184.09;5075834;28;20392;-77
2022/10/23 11:38:18;;;;;;;1.33;1.00;;;;;;;18.50;64.82;96182.19;5075411;28;20136;-78
2022/10/23 11:40:50;;;;;;;3.60;0.90;;;;;;;18.57;65.30;96175.16;5077850;28;20509;-78
2022/10/23 11:43:27;;;;;;;2.75;1.02;;;;;;;18.62;65.15;96177.59;5086703;28;20143;-78
2022/10/23 11:45:54;;;;;;;1.38;1.05;;;;;;;18.61;65.86;96176.81;5085299;28;20108;-78
2022/10/23 11:48:23;;;;;;;1.85;1.20;;;;;;;18.55;65.65;96169.25;5085781;28;20044;-79
2022/10/23 11:50:53;;;;;;;1.73;1.20;;;;;;;18.71;66.30;96173.41;5088239;28;20617;-77
2022/10/23 11:53:27;;;;;;;3.42;1.38;;;;;;;18.76;66.12;96173.09;5076041;28;20036;-78
2022/10/23 11:56:25;;;;;;;2.90;1.17;;;;;;;18.69;65.60;96164.75;5078241;28;20068;-78